createdAt,value
2022-09-12T00:03:03.650Z,99259.47
2022-09-12T00:08:06.607Z,99261.38
2022-09-12T00:13:10.715Z,99261.03
2022-09-12T00:18:16.811Z,99262.81
2022-09-12T00:23:19.793Z,99258.00
2022-09-12T00:28:22.718Z,99266.97
2022-09-12T00:33:27.202Z,99263.63
2022-09-12T00:38:30.296Z,99267.13
2022-09-12T00:43:41.691Z,99247.03
2022-09-12T00:48:51.495Z,99249.44
2022-09-12T00:53:56.227Z,99244.22
2022-09-12T00:59:03.653Z,99247.41
2022-09-12T01:04:08.352Z,99238.47
2022-09-12T01:09:14.444Z,99244.59
2022-09-12T01:14:19.211Z,99245.97
2022-09-12T01:19:54.027Z,99241.69
2022-09-12T01:25:09.450Z,99233.09
2022-09-12T01:30:42.695Z,99236.34
2022-09-12T01:35:54.190Z,99236.78
2022-09-12T01:41:03.672Z,99236.88
2022-09-12T01:46:17.450Z,99224.13
2022-09-12T01:51:24.772Z,99226.56
2022-09-12T01:56:32.296Z,99226.31
2022-09-12T02:01:42.048Z,99220.00
2022-09-12T02:06:49.320Z,99217.25
2022-09-12T02:11:56.768Z,99218.69
2022-09-12T02:17:07.617Z,99211.81
2022-09-12T02:22:16.631Z,99204.91
2022-09-12T02:27:24.781Z,99206.19
2022-09-12T02:32:36.015Z,99211.25
2022-09-12T02:37:54.003Z,99210.66
2022-09-12T02:42:57.542Z,99206.41
2022-09-12T02:48:07.228Z,99208.81
2022-09-12T02:53:11.531Z,99201.03
2022-09-12T02:58:18.149Z,99205.19
2022-09-12T03:03:43.272Z,99210.00
2022-09-12T03:09:01.695Z,99219.09
2022-09-12T03:14:18.670Z,99212.06
2022-09-12T03:19:30.340Z,99215.19
2022-09-12T03:24:38.530Z,99207.72
2022-09-12T03:29:43.128Z,99211.66
2022-09-12T03:34:47.481Z,99208.00
2022-09-12T03:39:50.474Z,99208.81
2022-09-12T03:44:53.393Z,99210.75
2022-09-12T03:49:57.641Z,99215.44
2022-09-12T03:55:00.541Z,99216.00
2022-09-12T04:00:03.780Z,99216.50
2022-09-12T04:05:28.117Z,99208.34
2022-09-12T04:10:31.009Z,99220.16
2022-09-12T04:15:33.980Z,99212.81
2022-09-12T04:20:38.913Z,99214.78
2022-09-12T04:25:41.932Z,99221.09
2022-09-12T04:30:44.882Z,99215.00
2022-09-12T04:35:50.373Z,99217.75
2022-09-12T04:40:53.306Z,99210.75
2022-09-12T04:45:56.393Z,99210.88
2022-09-12T04:51:10.024Z,99222.44
2022-09-12T04:56:13.377Z,99226.13
2022-09-12T05:01:18.869Z,99229.31
2022-09-12T05:06:25.338Z,99225.16
2022-09-12T05:11:53.073Z,99220.53
2022-09-12T05:16:53.957Z,99228.00
2022-09-12T05:21:58.876Z,99229.13
2022-09-12T05:27:03.423Z,99238.75
2022-09-12T05:32:06.524Z,99237.44
2022-09-12T05:37:10.817Z,99241.78
2022-09-12T05:42:14.341Z,99246.13
2022-09-12T05:47:18.087Z,99246.59
2022-09-12T05:52:22.335Z,99257.09
2022-09-12T05:57:25.328Z,99253.88
2022-09-12T06:02:28.508Z,99251.59
2022-09-12T06:07:33.043Z,99252.19
2022-09-12T06:12:35.958Z,99258.50
2022-09-12T06:17:38.837Z,99260.75
2022-09-12T06:22:43.132Z,99264.16
2022-09-12T06:27:47.558Z,99268.66
2022-09-12T06:32:50.520Z,99266.16
2022-09-12T06:37:54.792Z,99262.91
2022-09-12T06:42:57.680Z,99260.25
2022-09-12T06:48:09.367Z,99261.84
2022-09-12T06:53:13.639Z,99276.09
2022-09-12T06:58:16.624Z,99282.84
2022-09-12T07:03:19.867Z,99273.16
2022-09-12T07:08:24.406Z,99278.94
2022-09-12T07:13:27.364Z,99274.81
2022-09-12T07:18:31.037Z,99284.31
2022-09-12T07:23:35.407Z,99293.19
2022-09-12T07:28:38.453Z,99293.16
2022-09-12T07:33:43.015Z,99296.50
2022-09-12T07:38:47.650Z,99297.28
2022-09-12T07:43:53.580Z,99299.94
2022-09-12T07:48:58.609Z,99290.09
2022-09-12T07:54:03.644Z,99295.38
2022-09-12T07:59:06.776Z,99299.97
2022-09-12T08:04:09.902Z,99303.31
2022-09-12T08:09:15.513Z,99307.16
2022-09-12T08:14:18.581Z,99299.50
2022-09-12T08:19:22.775Z,99296.13
2022-09-12T08:24:27.275Z,99306.56
2022-09-12T08:29:30.227Z,99305.69
2022-09-12T08:34:33.135Z,99305.66
2022-09-12T08:39:37.526Z,99304.16
2022-09-12T08:45:05.757Z,99310.63
2022-09-12T08:50:16.453Z,99302.81
2022-09-12T08:55:28.843Z,99288.94
2022-09-12T09:00:40.501Z,99297.44
2022-09-12T09:05:50.182Z,99300.44
2022-09-12T09:11:04.576Z,99291.84
2022-09-12T09:16:13.314Z,99298.53
2022-09-12T09:21:24.648Z,99300.13
2022-09-12T09:26:37.072Z,99293.03
2022-09-12T09:31:42.549Z,99281.59
2022-09-12T09:36:51.657Z,99277.19
2022-09-12T09:42:10.443Z,99280.16
2022-09-12T09:47:13.831Z,99277.22
2022-09-12T09:52:22.184Z,99283.66
2022-09-12T09:57:44.750Z,99269.97
2022-09-12T10:03:02.911Z,99269.84
2022-09-12T10:08:08.190Z,99266.44
2022-09-12T10:13:26.353Z,99275.66
2022-09-12T10:18:42.263Z,99260.72
2022-09-12T10:23:46.286Z,99274.06
2022-09-12T10:28:54.135Z,99255.63
2022-09-12T10:34:00.970Z,99265.16
2022-09-12T10:39:05.431Z,99255.59
2022-09-12T10:44:16.929Z,99255.38
2022-09-12T10:49:27.074Z,99244.19
2022-09-12T10:54:30.216Z,99248.31
2022-09-12T10:59:46.531Z,99230.19
2022-09-12T11:04:56.685Z,99232.25
2022-09-12T11:10:07.367Z,99223.63
2022-09-12T11:15:30.680Z,99222.28
2022-09-12T11:21:07.459Z,99227.91
2022-09-12T11:26:24.870Z,99232.75
2022-09-12T11:31:55.599Z,99229.50
2022-09-12T11:37:18.042Z,99224.50
2022-09-12T11:42:27.492Z,99219.25
2022-09-12T11:47:35.778Z,99234.16
2022-09-12T11:52:40.691Z,99228.16
2022-09-12T11:57:46.870Z,99216.22
2022-09-12T12:03:02.571Z,99225.13
2022-09-12T12:08:06.853Z,99220.13
2022-09-12T12:13:18.094Z,99219.75
2022-09-12T12:18:26.585Z,99226.56
2022-09-12T12:23:32.354Z,99211.94
2022-09-12T12:28:58.886Z,99205.78
2022-09-12T12:34:27.767Z,99204.09
2022-09-12T12:40:04.977Z,99200.50
2022-09-12T12:45:50.494Z,99197.28
2022-09-12T12:50:54.886Z,99195.59
2022-09-12T12:55:58.807Z,99186.09
2022-09-12T13:01:12.068Z,99181.81
2022-09-12T13:06:32.715Z,99179.88
2022-09-12T13:11:38.580Z,99166.69
2022-09-12T13:16:55.268Z,99165.88
2022-09-12T13:22:02.572Z,99161.69
2022-09-12T13:27:18.392Z,99165.19
2022-09-12T13:32:21.348Z,99159.56
2022-09-12T13:37:41.342Z,99152.56
2022-09-12T13:50:03.609Z,99143.72
2022-09-12T13:55:19.661Z,99141.34
2022-09-12T14:00:22.595Z,99140.25
2022-09-12T14:05:27.298Z,99136.47
2022-09-12T14:10:34.983Z,99137.50
2022-09-12T14:15:39.239Z,99140.94
2022-09-12T14:20:42.990Z,99135.63
2022-09-12T14:25:48.047Z,99131.94
2022-09-12T14:31:03.079Z,99127.41
2022-09-12T14:36:13.191Z,99121.44
2022-09-12T14:41:25.030Z,99122.81
2022-09-12T14:46:31.747Z,99121.81
2022-09-12T14:51:38.373Z,99116.34
2022-09-12T14:56:44.392Z,99116.03
2022-09-12T15:01:47.383Z,99110.53
2022-09-12T15:06:50.339Z,99109.88
2022-09-12T15:11:54.908Z,99106.34
2022-09-12T15:16:57.831Z,99108.22
2022-09-12T15:22:00.899Z,99108.41
2022-09-12T15:27:10.199Z,99103.34
2022-09-12T15:32:25.174Z,99106.66
2022-09-12T15:37:28.456Z,99088.25
2022-09-12T15:42:32.767Z,99101.16
2022-09-12T15:47:35.696Z,99094.31
2022-09-12T15:52:39.233Z,99094.22
2022-09-12T15:57:43.636Z,99099.81
2022-09-12T16:02:47.440Z,99096.81
2022-09-12T16:07:52.368Z,99097.56
2022-09-12T16:12:57.100Z,99095.16
2022-09-12T16:18:00.029Z,99083.75
2022-09-12T16:23:02.985Z,99083.59
2022-09-12T16:28:07.760Z,99083.63
2022-09-12T16:33:10.706Z,99074.13
2022-09-12T16:38:13.712Z,99080.28
2022-09-12T16:43:18.428Z,99073.09
2022-09-12T16:48:21.468Z,99062.75
2022-09-12T16:53:24.441Z,99060.38
2022-09-12T16:58:29.257Z,99051.13
2022-09-12T17:03:32.458Z,99060.75
2022-09-12T17:08:37.012Z,99057.88
2022-09-12T17:14:03.094Z,99045.38
2022-09-12T17:19:06.235Z,99045.44
2022-09-12T17:24:09.194Z,99043.34
2022-09-12T17:29:14.264Z,99042.78
2022-09-12T17:34:17.923Z,99039.06
2022-09-12T17:39:21.229Z,99043.59
2022-09-12T17:44:25.843Z,99042.78
2022-09-12T17:49:29.002Z,99039.59
2022-09-12T17:54:32.031Z,99043.84
2022-09-12T17:59:36.310Z,99048.34
2022-09-12T18:04:39.301Z,99049.13
2022-09-12T18:09:42.441Z,99049.13
2022-09-12T18:14:46.862Z,99048.84
2022-09-12T18:19:53.824Z,99042.22
2022-09-12T18:24:56.972Z,99047.47
2022-09-12T18:30:20.002Z,99039.78
2022-09-12T18:35:25.587Z,99046.06
2022-09-12T18:40:28.810Z,99047.59
2022-09-12T18:45:33.295Z,99051.31
2022-09-12T18:50:36.365Z,99048.31
2022-09-12T18:55:42.465Z,99050.59
2022-09-12T19:00:48.448Z,99060.81
2022-09-12T19:05:51.534Z,99064.97
2022-09-12T19:10:57.784Z,99047.53
2022-09-12T19:16:03.254Z,99043.13
2022-09-12T19:21:09.916Z,99044.88
2022-09-12T19:26:14.903Z,99045.06
2022-09-12T19:31:20.758Z,99040.75
2022-09-12T19:41:46.896Z,99036.53
2022-09-12T19:46:51.280Z,99028.53
2022-09-12T19:51:54.242Z,99029.06
2022-09-12T19:56:57.195Z,99025.53
2022-09-12T20:02:01.589Z,99019.44
2022-09-12T20:07:04.620Z,99020.19
2022-09-12T20:12:08.680Z,99019.66
2022-09-12T20:17:13.003Z,99024.34
2022-09-12T20:22:15.900Z,99024.09
2022-09-12T20:27:18.909Z,99023.59
2022-09-12T20:32:23.265Z,99020.13
2022-09-12T20:37:26.296Z,99022.34
2022-09-12T20:42:30.326Z,99008.69
2022-09-12T20:47:34.623Z,99009.41
2022-09-12T20:52:37.536Z,98999.19
2022-09-12T20:57:40.470Z,98997.03
2022-09-12T21:02:44.811Z,99003.31
2022-09-12T21:07:47.738Z,98998.41
2022-09-12T21:12:50.652Z,98992.88
2022-09-12T21:17:55.020Z,98990.47
2022-09-12T21:22:57.950Z,98987.34
2022-09-12T21:28:00.875Z,98982.50
2022-09-12T21:33:05.514Z,98977.63
2022-09-12T21:38:09.387Z,98986.03
2022-09-12T21:43:13.259Z,98978.16
2022-09-12T21:48:17.636Z,98974.50
2022-09-12T21:53:20.574Z,98964.44
2022-09-12T21:58:23.456Z,98981.31
2022-09-12T22:03:28.448Z,98969.84
2022-09-12T22:08:32.619Z,98958.94
2022-09-12T22:13:35.619Z,98947.53
2022-09-12T22:18:40.184Z,98941.56
2022-09-12T22:24:01.014Z,98940.88
2022-09-12T22:29:04.452Z,98941.31
2022-09-12T22:34:08.767Z,98934.53
2022-09-12T22:39:11.740Z,98929.66
2022-09-12T22:44:14.777Z,98919.81
2022-09-12T22:49:19.038Z,98905.75
2022-09-12T22:54:21.942Z,98905.88
2022-09-12T22:59:24.865Z,98901.41
2022-09-12T23:04:29.156Z,98894.31
2022-09-12T23:09:35.279Z,98885.31
2022-09-12T23:14:38.533Z,98889.06
2022-09-12T23:19:42.811Z,98889.06
2022-09-12T23:24:45.929Z,98882.56
2022-09-12T23:29:52.378Z,98869.75
2022-09-12T23:34:56.671Z,98868.03
2022-09-12T23:39:59.645Z,98865.97
2022-09-12T23:45:02.610Z,98859.22
2022-09-12T23:50:07.789Z,98855.38
2022-09-12T23:55:10.883Z,98851.38
